sensor_id;sensor_type;location;lat;lon;timestamp;pressure;altitude;pressure_sealevel;temperature;humidity
27210;BME280;14721;42.668;23.386;2023-06-14T00:00:51;95014.88;;;17.79;100.00
27210;BME280;14721;42.668;23.386;2023-06-14T00:03:18;95018.56;;;17.78;100.00
27210;BME280;14721;42.668;23.386;2023-06-14T00:05:47;95008.94;;;17.75;100.00
27210;BME280;14721;42.668;23.386;2023-06-14T00:08:13;94999.16;;;17.74;100.00
27210;BME280;14721;42.668;23.386;2023-06-14T00:10:41;95010.28;;;17.79;100.00
27210;BME280;14721;42.668;23.386;2023-06-14T00:13:08;94982.91;;;17.66;100.00
27210;BME280;14721;42.668;23.386;2023-06-14T00:15:34;94990.34;;;17.72;100.00
27210;BME280;14721;42.668;23.386;2023-06-14T00:18:01;94976.81;;;17.64;100.00
27210;BME280;14721;42.668;23.386;2023-06-14T00:20:28;95001.34;;;17.79;100.00
27210;BME280;14721;42.668;23.386;2023-06-14T00:22:54;94998.47;;;17.80;100.00
27210;BME280;14721;42.668;23.386;2023-06-14T00:25:24;95001.34;;;17.79;100.00
27210;BME280;14721;42.668;23.386;2023-06-14T00:27:56;94987.47;;;17.74;100.00
27210;BME280;14721;42.668;23.386;2023-06-14T00:30:22;94991.84;;;17.75;100.00
27210;BME280;14721;42.668;23.386;2023-06-14T00:32:48;94986.13;;;17.78;100.00
27210;BME280;14721;42.668;23.386;2023-06-14T00:35:13;94975.97;;;17.72;100.00
27210;BME280;14721;42.668;23.386;2023-06-14T00:37:39;94989.69;;;17.78;100.00
27210;BME280;14721;42.668;23.386;2023-06-14T00:40:06;94952.81;;;17.61;100.00
27210;BME280;14721;42.668;23.386;2023-06-14T00:42:33;94984.13;;;17.80;100.00
27210;BME280;14721;42.668;23.386;2023-06-14T00:45:02;94983.63;;;17.84;100.00
27210;BME280;14721;42.668;23.386;2023-06-14T00:50:14;94976.03;;;17.88;100.00
27210;BME280;14721;42.668;23.386;2023-06-14T00:52:41;94981.59;;;17.86;100.00
27210;BME280;14721;42.668;23.386;2023-06-14T00:55:07;94987.34;;;17.83;100.00
27210;BME280;14721;42.668;23.386;2023-06-14T00:57:34;94973.50;;;17.86;100.00
27210;BME280;14721;42.668;23.386;2023-06-14T01:00:03;94974.31;;;17.87;100.00
27210;BME280;14721;42.668;23.386;2023-06-14T01:02:35;94974.31;;;17.87;100.00
27210;BME280;14721;42.668;23.386;2023-06-14T01:05:02;94978.56;;;17.89;100.00
27210;BME280;14721;42.668;23.386;2023-06-14T01:13:28;94982.63;;;17.93;100.00
27210;BME280;14721;42.668;23.386;2023-06-14T01:15:55;94974.84;;;17.90;100.00
27210;BME280;14721;42.668;23.386;2023-06-14T01:18:22;94975.00;;;17.89;100.00
27210;BME280;14721;42.668;23.386;2023-06-14T01:20:49;94981.59;;;17.94;100.00
27210;BME280;14721;42.668;23.386;2023-06-14T01:23:20;94981.28;;;17.97;100.00
27210;BME280;14721;42.668;23.386;2023-06-14T01:25:47;94976.19;;;17.94;100.00
27210;BME280;14721;42.668;23.386;2023-06-14T01:28:15;94976.88;;;17.96;100.00
27210;BME280;14721;42.668;23.386;2023-06-14T01:30:44;94978.91;;;17.94;100.00
27210;BME280;14721;42.668;23.386;2023-06-14T01:33:18;94975.69;;;17.91;100.00
27210;BME280;14721;42.668;23.386;2023-06-14T01:35:49;94984.63;;;17.91;100.00
27210;BME280;14721;42.668;23.386;2023-06-14T01:38:17;94975.34;;;17.86;100.00
27210;BME280;14721;42.668;23.386;2023-06-14T01:40:46;94982.78;;;17.92;100.00
27210;BME280;14721;42.668;23.386;2023-06-14T01:43:16;94984.31;;;17.94;100.00
27210;BME280;14721;42.668;23.386;2023-06-14T01:45:42;94971.28;;;17.90;100.00
27210;BME280;14721;42.668;23.386;2023-06-14T01:48:09;94974.16;;;17.88;100.00
27210;BME280;14721;42.668;23.386;2023-06-14T01:50:42;94971.28;;;17.82;100.00
27210;BME280;14721;42.668;23.386;2023-06-14T01:53:08;94961.31;;;17.82;100.00
27210;BME280;14721;42.668;23.386;2023-06-14T01:55:34;94969.59;;;17.89;100.00
27210;BME280;14721;42.668;23.386;2023-06-14T01:58:04;94966.03;;;17.88;100.00
27210;BME280;14721;42.668;23.386;2023-06-14T02:00:30;94965.88;;;17.82;100.00
27210;BME280;14721;42.668;23.386;2023-06-14T02:02:55;94983.63;;;17.84;100.00
27210;BME280;14721;42.668;23.386;2023-06-14T02:05:21;94975.31;;;17.70;100.00
27210;BME280;14721;42.668;23.386;2023-06-14T02:07:47;94970.25;;;17.67;100.00
27210;BME280;14721;42.668;23.386;2023-06-14T02:10:13;94975.97;;;17.64;100.00
27210;BME280;14721;42.668;23.386;2023-06-14T02:12:39;94996.59;;;17.73;100.00
27210;BME280;14721;42.668;23.386;2023-06-14T02:15:05;95000.66;;;17.77;100.00
27210;BME280;14721;42.668;23.386;2023-06-14T02:17:32;95000.50;;;17.78;100.00
27210;BME280;14721;42.668;23.386;2023-06-14T02:19:58;95002.53;;;17.84;100.00
27210;BME280;14721;42.668;23.386;2023-06-14T02:22:24;94998.16;;;17.83;100.00
27210;BME280;14721;42.668;23.386;2023-06-14T02:24:49;95003.03;;;17.80;100.00
27210;BME280;14721;42.668;23.386;2023-06-14T02:27:15;95002.19;;;17.79;100.00
27210;BME280;14721;42.668;23.386;2023-06-14T02:29:40;95004.22;;;17.77;100.00
27210;BME280;14721;42.668;23.386;2023-06-14T02:32:06;95010.94;;;17.73;100.00
27210;BME280;14721;42.668;23.386;2023-06-14T02:34:33;94991.69;;;17.68;100.00
27210;BME280;14721;42.668;23.386;2023-06-14T02:36:59;95011.31;;;17.78;100.00
27210;BME280;14721;42.668;23.386;2023-06-14T02:39:24;95005.03;;;17.78;100.00
27210;BME280;14721;42.668;23.386;2023-06-14T02:41:50;95003.53;;;17.75;100.00
27210;BME280;14721;42.668;23.386;2023-06-14T02:44:17;95009.63;;;17.77;100.00
27210;BME280;14721;42.668;23.386;2023-06-14T02:46:43;95015.69;;;17.71;100.00
27210;BME280;14721;42.668;23.386;2023-06-14T02:49:09;95004.88;;;17.71;100.00
27210;BME280;14721;42.668;23.386;2023-06-14T02:51:35;95008.25;;;17.73;100.00
27210;BME280;14721;42.668;23.386;2023-06-14T02:54:00;95012.28;;;17.69;100.00
27210;BME280;14721;42.668;23.386;2023-06-14T02:56:26;95008.22;;;17.65;100.00
27210;BME280;14721;42.668;23.386;2023-06-14T02:58:53;95016.00;;;17.68;100.00
27210;BME280;14721;42.668;23.386;2023-06-14T03:01:18;94990.09;;;17.50;100.00
27210;BME280;14721;42.668;23.386;2023-06-14T03:03:46;95019.53;;;17.61;100.00
27210;BME280;14721;42.668;23.386;2023-06-14T03:06:11;95020.69;;;17.58;100.00
27210;BME280;14721;42.668;23.386;2023-06-14T03:08:38;95023.88;;;17.54;100.00
27210;BME280;14721;42.668;23.386;2023-06-14T03:11:07;95027.91;;;17.50;100.00
27210;BME280;14721;42.668;23.386;2023-06-14T03:13:36;95020.31;;;17.45;100.00
27210;BME280;14721;42.668;23.386;2023-06-14T03:16:02;95025.88;;;17.44;100.00
27210;BME280;14721;42.668;23.386;2023-06-14T03:18:31;95022.69;;;17.48;100.00
27210;BME280;14721;42.668;23.386;2023-06-14T03:21:01;95024.34;;;17.49;100.00
27210;BME280;14721;42.668;23.386;2023-06-14T03:23:26;95018.78;;;17.51;100.00
27210;BME280;14721;42.668;23.386;2023-06-14T03:25:52;95033.00;;;17.53;100.00
27210;BME280;14721;42.668;23.386;2023-06-14T03:28:36;95029.81;;;17.57;100.00
27210;BME280;14721;42.668;23.386;2023-06-14T03:31:02;95028.13;;;17.56;100.00
27210;BME280;14721;42.668;23.386;2023-06-14T03:33:31;95025.91;;;17.52;100.00
27210;BME280;14721;42.668;23.386;2023-06-14T03:35:56;95026.63;;;17.62;100.00
27210;BME280;14721;42.668;23.386;2023-06-14T03:38:22;95028.13;;;17.64;100.00
27210;BME280;14721;42.668;23.386;2023-06-14T03:40:48;95022.41;;;17.67;100.00
27210;BME280;14721;42.668;23.386;2023-06-14T03:43:14;95029.03;;;17.73;100.00
27210;BME280;14721;42.668;23.386;2023-06-14T03:45:39;95035.59;;;17.70;100.00
27210;BME280;14721;42.668;23.386;2023-06-14T03:48:05;95025.09;;;17.67;100.00
27210;BME280;14721;42.668;23.386;2023-06-14T03:50:32;95040.00;;;17.71;100.00
27210;BME280;14721;42.668;23.386;2023-06-14T03:52:58;95041.00;;;17.70;100.00
27210;BME280;14721;42.668;23.386;2023-06-14T03:55:23;95030.84;;;17.64;100.00
27210;BME280;14721;42.668;23.386;2023-06-14T03:57:51;95037.97;;;17.65;100.00
27210;BME280;14721;42.668;23.386;2023-06-14T04:00:17;95040.34;;;17.68;100.00
27210;BME280;14721;42.668;23.386;2023-06-14T04:02:43;95043.38;;;17.73;100.00
27210;BME280;14721;42.668;23.386;2023-06-14T04:05:12;95047.78;;;17.82;100.00
27210;BME280;14721;42.668;23.386;2023-06-14T04:07:37;95041.41;;;17.83;100.00
27210;BME280;14721;42.668;23.386;2023-06-14T04:10:08;95041.75;;;17.96;100.00
27210;BME280;14721;42.668;23.386;2023-06-14T04:12:33;95047.00;;;18.06;100.00
27210;BME280;14721;42.668;23.386;2023-06-14T04:14:59;95025.72;;;18.11;100.00
27210;BME280;14721;42.668;23.386;2023-06-14T04:17:27;95042.16;;;18.33;100.00
27210;BME280;14721;42.668;23.386;2023-06-14T04:19:52;95045.44;;;18.37;100.00
27210;BME280;14721;42.668;23.386;2023-06-14T04:22:18;95041.53;;;18.39;100.00
27210;BME280;14721;42.668;23.386;2023-06-14T04:24:43;95047.97;;;18.54;100.00
27210;BME280;14721;42.668;23.386;2023-06-14T04:27:11;95053.06;;;18.65;100.00
27210;BME280;14721;42.668;23.386;2023-06-14T04:29:40;95041.72;;;18.86;100.00
27210;BME280;14721;42.668;23.386;2023-06-14T04:32:11;95049.22;;;19.55;100.00
27210;BME280;14721;42.668;23.386;2023-06-14T04:34:38;95040.03;;;20.33;100.00
27210;BME280;14721;42.668;23.386;2023-06-14T04:37:05;95047.78;;;20.67;99.43
27210;BME280;14721;42.668;23.386;2023-06-14T04:39:33;95040.44;;;20.98;95.99
27210;BME280;14721;42.668;23.386;2023-06-14T04:41:59;95048.28;;;21.30;93.63
27210;BME280;14721;42.668;23.386;2023-06-14T04:44:25;95052.59;;;21.53;92.76
27210;BME280;14721;42.668;23.386;2023-06-14T04:46:58;95049.44;;;21.64;90.94
27210;BME280;14721;42.668;23.386;2023-06-14T04:49:25;95055.25;;;21.61;89.56
27210;BME280;14721;42.668;23.386;2023-06-14T04:51:52;95049.81;;;21.61;89.72
27210;BME280;14721;42.668;23.386;2023-06-14T04:54:23;95045.88;;;21.49;87.21
27210;BME280;14721;42.668;23.386;2023-06-14T04:56:50;95060.84;;;21.45;86.29
27210;BME280;14721;42.668;23.386;2023-06-14T04:59:16;95063.09;;;21.56;88.00
27210;BME280;14721;42.668;23.386;2023-06-14T05:01:42;95068.38;;;21.58;88.42
27210;BME280;14721;42.668;23.386;2023-06-14T05:04:16;95069.38;;;21.42;88.42
27210;BME280;14721;42.668;23.386;2023-06-14T05:06:43;95068.59;;;21.19;89.40
27210;BME280;14721;42.668;23.386;2023-06-14T05:09:15;95072.16;;;20.97;90.90
27210;BME280;14721;42.668;23.386;2023-06-14T05:11:42;95073.78;;;20.84;90.54
27210;BME280;14721;42.668;23.386;2023-06-14T05:14:10;95058.53;;;20.60;91.32
27210;BME280;14721;42.668;23.386;2023-06-14T05:16:36;95066.00;;;20.58;93.53
27210;BME280;14721;42.668;23.386;2023-06-14T05:19:03;95059.69;;;20.43;95.13
27210;BME280;14721;42.668;23.386;2023-06-14T05:21:32;95074.19;;;20.27;96.60
27210;BME280;14721;42.668;23.386;2023-06-14T05:24:02;95073.38;;;20.19;97.56
27210;BME280;14721;42.668;23.386;2023-06-14T05:26:28;95071.91;;;20.00;98.06
27210;BME280;14721;42.668;23.386;2023-06-14T05:28:57;95083.63;;;20.01;97.92
27210;BME280;14721;42.668;23.386;2023-06-14T05:31:24;95081.06;;;19.99;96.36
27210;BME280;14721;42.668;23.386;2023-06-14T05:33:51;95091.41;;;20.04;97.10
27210;BME280;14721;42.668;23.386;2023-06-14T05:36:17;95079.16;;;20.08;97.37
27210;BME280;14721;42.668;23.386;2023-06-14T05:38:43;95088.78;;;20.26;97.85
27210;BME280;14721;42.668;23.386;2023-06-14T05:41:09;95080.13;;;20.23;95.41
27210;BME280;14721;42.668;23.386;2023-06-14T05:43:34;95087.81;;;20.42;94.63
27210;BME280;14721;42.668;23.386;2023-06-14T05:46:00;95088.97;;;20.70;95.58
27210;BME280;14721;42.668;23.386;2023-06-14T05:48:26;95091.25;;;21.12;93.33
27210;BME280;14721;42.668;23.386;2023-06-14T05:50:51;95098.69;;;21.32;89.85
27210;BME280;14721;42.668;23.386;2023-06-14T05:53:17;95097.66;;;21.33;89.64
27210;BME280;14721;42.668;23.386;2023-06-14T05:55:43;95098.16;;;21.51;89.83
27210;BME280;14721;42.668;23.386;2023-06-14T05:58:09;95095.16;;;21.46;87.26
27210;BME280;14721;42.668;23.386;2023-06-14T06:00:36;95103.41;;;21.53;86.99
27210;BME280;14721;42.668;23.386;2023-06-14T06:03:02;95099.69;;;21.68;87.75
27210;BME280;14721;42.668;23.386;2023-06-14T06:05:28;95099.91;;;21.81;89.54
27210;BME280;14721;42.668;23.386;2023-06-14T06:07:53;95102.19;;;21.78;87.47
27210;BME280;14721;42.668;23.386;2023-06-14T06:10:19;95107.00;;;21.68;84.44
27210;BME280;14721;42.668;23.386;2023-06-14T06:12:45;95116.25;;;21.59;84.66
27210;BME280;14721;42.668;23.386;2023-06-14T06:15:12;95111.00;;;21.57;85.69
27210;BME280;14721;42.668;23.386;2023-06-14T06:17:38;95106.72;;;21.63;84.29
27210;BME280;14721;42.668;23.386;2023-06-14T06:20:07;95106.56;;;21.79;83.75
27210;BME280;14721;42.668;23.386;2023-06-14T06:22:34;95092.72;;;21.88;84.98
27210;BME280;14721;42.668;23.386;2023-06-14T06:25:01;95113.81;;;22.15;85.06
27210;BME280;14721;42.668;23.386;2023-06-14T06:27:27;95112.06;;;22.44;84.20
27210;BME280;14721;42.668;23.386;2023-06-14T06:29:52;95111.69;;;22.61;83.56
27210;BME280;14721;42.668;23.386;2023-06-14T06:32:19;95119.06;;;22.67;82.59
27210;BME280;14721;42.668;23.386;2023-06-14T06:34:45;95121.41;;;22.70;82.09
27210;BME280;14721;42.668;23.386;2023-06-14T06:37:11;95119.28;;;22.66;82.71
27210;BME280;14721;42.668;23.386;2023-06-14T06:39:36;95127.16;;;22.46;79.67
27210;BME280;14721;42.668;23.386;2023-06-14T06:42:02;95131.59;;;22.47;78.09
27210;BME280;14721;42.668;23.386;2023-06-14T06:44:28;95127.34;;;22.45;80.14
27210;BME280;14721;42.668;23.386;2023-06-14T06:46:54;95136.66;;;22.36;79.22
27210;BME280;14721;42.668;23.386;2023-06-14T06:49:20;95125.13;;;22.19;79.48
27210;BME280;14721;42.668;23.386;2023-06-14T06:51:59;95129.63;;;22.26;80.58
27210;BME280;14721;42.668;23.386;2023-06-14T06:54:26;95130.03;;;22.38;79.64
27210;BME280;14721;42.668;23.386;2023-06-14T06:56:51;95129.34;;;22.51;79.65
27210;BME280;14721;42.668;23.386;2023-06-14T06:59:17;95130.44;;;22.71;80.29
27210;BME280;14721;42.668;23.386;2023-06-14T07:01:43;95129.03;;;22.96;79.04
27210;BME280;14721;42.668;23.386;2023-06-14T07:04:08;95131.31;;;23.13;79.42
27210;BME280;14721;42.668;23.386;2023-06-14T07:06:34;95135.47;;;23.09;76.57
27210;BME280;14721;42.668;23.386;2023-06-14T07:08:59;95128.66;;;22.99;77.01
27210;BME280;14721;42.668;23.386;2023-06-14T07:11:27;95132.31;;;23.06;75.91
27210;BME280;14721;42.668;23.386;2023-06-14T07:13:52;95124.06;;;23.20;75.80
27210;BME280;14721;42.668;23.386;2023-06-14T07:16:18;95117.38;;;23.23;75.73
27210;BME280;14721;42.668;23.386;2023-06-14T07:18:43;95119.81;;;23.60;74.43
27210;BME280;14721;42.668;23.386;2023-06-14T07:21:09;95120.75;;;23.73;75.10
27210;BME280;14721;42.668;23.386;2023-06-14T07:23:36;95113.97;;;24.18;74.34
27210;BME280;14721;42.668;23.386;2023-06-14T07:26:04;95116.38;;;24.75;73.09
27210;BME280;14721;42.668;23.386;2023-06-14T07:28:30;95117.41;;;25.86;67.63
27210;BME280;14721;42.668;23.386;2023-06-14T07:30:57;95115.47;;;26.96;65.83
27210;BME280;14721;42.668;23.386;2023-06-14T07:33:22;95111.19;;;27.69;64.47
27210;BME280;14721;42.668;23.386;2023-06-14T07:35:48;95097.53;;;28.54;58.62
27210;BME280;14721;42.668;23.386;2023-06-14T07:38:14;95100.31;;;27.87;58.64
27210;BME280;14721;42.668;23.386;2023-06-14T07:40:40;95106.22;;;27.84;58.56
27210;BME280;14721;42.668;23.386;2023-06-14T07:43:09;95107.00;;;27.66;58.19
27210;BME280;14721;42.668;23.386;2023-06-14T07:45:35;95099.50;;;26.80;58.55
27210;BME280;14721;42.668;23.386;2023-06-14T07:48:00;95111.44;;;26.35;60.10
27210;BME280;14721;42.668;23.386;2023-06-14T07:50:25;95104.56;;;25.80;61.40
27210;BME280;14721;42.668;23.386;2023-06-14T07:52:51;95111.69;;;26.14;60.34
27210;BME280;14721;42.668;23.386;2023-06-14T07:55:16;95110.25;;;25.78;62.99
27210;BME280;14721;42.668;23.386;2023-06-14T07:57:42;95122.03;;;25.53;63.94
27210;BME280;14721;42.668;23.386;2023-06-14T08:00:09;95101.13;;;25.26;64.17
27210;BME280;14721;42.668;23.386;2023-06-14T08:02:43;95122.97;;;25.06;64.88
27210;BME280;14721;42.668;23.386;2023-06-14T08:05:10;95130.50;;;24.91;65.75
27210;BME280;14721;42.668;23.386;2023-06-14T08:07:41;95120.66;;;24.56;65.05
27210;BME280;14721;42.668;23.386;2023-06-14T08:10:08;95130.84;;;24.69;65.65
27210;BME280;14721;42.668;23.386;2023-06-14T08:12:33;95131.09;;;24.80;65.62
27210;BME280;14721;42.668;23.386;2023-06-14T08:15:00;95139.16;;;25.01;64.44
27210;BME280;14721;42.668;23.386;2023-06-14T08:17:26;95134.34;;;25.16;65.14
27210;BME280;14721;42.668;23.386;2023-06-14T08:19:52;95138.22;;;25.48;65.75
27210;BME280;14721;42.668;23.386;2023-06-14T08:22:20;95144.03;;;25.12;61.97
27210;BME280;14721;42.668;23.386;2023-06-14T08:24:47;95148.84;;;25.04;64.03
27210;BME280;14721;42.668;23.386;2023-06-14T08:27:12;95146.22;;;25.49;61.68
27210;BME280;14721;42.668;23.386;2023-06-14T08:29:38;95145.84;;;25.65;60.48
27210;BME280;14721;42.668;23.386;2023-06-14T08:32:06;95146.34;;;26.72;59.73
27210;BME280;14721;42.668;23.386;2023-06-14T08:34:31;95148.13;;;27.73;53.25
27210;BME280;14721;42.668;23.386;2023-06-14T08:36:57;95142.41;;;28.05;53.10
27210;BME280;14721;42.668;23.386;2023-06-14T08:39:22;95134.88;;;28.61;53.66
27210;BME280;14721;42.668;23.386;2023-06-14T08:41:48;95126.94;;;28.89;53.62
27210;BME280;14721;42.668;23.386;2023-06-14T08:44:18;95138.31;;;28.75;52.78
27210;BME280;14721;42.668;23.386;2023-06-14T08:46:44;95123.00;;;28.00;52.63
27210;BME280;14721;42.668;23.386;2023-06-14T08:49:11;95129.69;;;28.29;52.34
27210;BME280;14721;42.668;23.386;2023-06-14T08:51:38;95100.81;;;28.62;53.10
27210;BME280;14721;42.668;23.386;2023-06-14T08:54:06;95119.19;;;29.46;50.74
27210;BME280;14721;42.668;23.386;2023-06-14T08:56:32;95108.59;;;29.61;49.26
27210;BME280;14721;42.668;23.386;2023-06-14T08:58:59;95112.03;;;29.56;48.67
27210;BME280;14721;42.668;23.386;2023-06-14T09:01:36;95121.72;;;29.77;48.82
27210;BME280;14721;42.668;23.386;2023-06-14T09:04:02;95115.63;;;29.86;48.48
27210;BME280;14721;42.668;23.386;2023-06-14T09:06:28;95119.34;;;29.03;50.61
27210;BME280;14721;42.668;23.386;2023-06-14T09:08:55;95099.34;;;28.60;50.60
27210;BME280;14721;42.668;23.386;2023-06-14T09:11:24;95110.25;;;27.88;51.17
27210;BME280;14721;42.668;23.386;2023-06-14T09:13:50;95117.13;;;26.97;52.75
27210;BME280;14721;42.668;23.386;2023-06-14T09:16:16;95095.09;;;26.72;54.59
27210;BME280;14721;42.668;23.386;2023-06-14T09:18:46;95115.56;;;26.76;54.87
27210;BME280;14721;42.668;23.386;2023-06-14T09:21:16;95113.91;;;26.69;55.06
27210;BME280;14721;42.668;23.386;2023-06-14T09:23:47;95112.88;;;26.44;54.85
27210;BME280;14721;42.668;23.386;2023-06-14T09:26:17;95110.34;;;26.42;56.13
27210;BME280;14721;42.668;23.386;2023-06-14T09:28:45;95106.44;;;26.06;55.54
27210;BME280;14721;42.668;23.386;2023-06-14T09:31:12;95116.94;;;26.28;58.10
27210;BME280;14721;42.668;23.386;2023-06-14T09:33:38;95104.72;;;26.24;55.46
27210;BME280;14721;42.668;23.386;2023-06-14T09:36:06;95096.28;;;26.26;56.52
27210;BME280;14721;42.668;23.386;2023-06-14T09:38:34;95107.06;;;25.88;56.12
27210;BME280;14721;42.668;23.386;2023-06-14T09:41:03;95100.13;;;25.99;56.43
27210;BME280;14721;42.668;23.386;2023-06-14T09:43:29;95095.25;;;26.27;55.56
27210;BME280;14721;42.668;23.386;2023-06-14T09:45:55;95090.28;;;26.55;55.04
27210;BME280;14721;42.668;23.386;2023-06-14T09:48:21;95086.69;;;26.61;55.52
27210;BME280;14721;42.668;23.386;2023-06-14T09:50:47;95091.59;;;26.39;55.06
27210;BME280;14721;42.668;23.386;2023-06-14T09:53:15;95086.69;;;26.61;54.59
27210;BME280;14721;42.668;23.386;2023-06-14T09:55:42;95081.63;;;26.58;56.73
27210;BME280;14721;42.668;23.386;2023-06-14T09:58:10;95086.28;;;26.64;55.75
27210;BME280;14721;42.668;23.386;2023-06-14T10:00:36;95080.28;;;26.86;54.50
27210;BME280;14721;42.668;23.386;2023-06-14T10:03:16;95079.84;;;26.89;55.60
27210;BME280;14721;42.668;23.386;2023-06-14T10:05:45;95085.13;;;26.84;54.05
27210;BME280;14721;42.668;23.386;2023-06-14T10:08:17;95062.03;;;26.54;54.81
27210;BME280;14721;42.668;23.386;2023-06-14T10:10:43;95078.28;;;26.62;53.91
27210;BME280;14721;42.668;23.386;2023-06-14T10:13:10;95058.22;;;26.62;54.11
27210;BME280;14721;42.668;23.386;2023-06-14T10:16:10;95054.53;;;26.87;52.88
27210;BME280;14721;42.668;23.386;2023-06-14T10:22:02;95042.66;;;27.00;53.84
27210;BME280;14721;42.668;23.386;2023-06-14T10:24:33;95047.22;;;27.12;52.64
27210;BME280;14721;42.668;23.386;2023-06-14T10:27:00;95040.53;;;27.02;53.31
27210;BME280;14721;42.668;23.386;2023-06-14T10:29:29;95032.88;;;27.10;53.50
27210;BME280;14721;42.668;23.386;2023-06-14T10:31:59;95048.78;;;26.64;53.16
27210;BME280;14721;42.668;23.386;2023-06-14T10:34:38;95039.09;;;26.55;52.42
27210;BME280;14721;42.668;23.386;2023-06-14T10:39:31;95050.63;;;26.07;53.22
27210;BME280;14721;42.668;23.386;2023-06-14T10:41:57;95023.25;;;25.80;55.32
27210;BME280;14721;42.668;23.386;2023-06-14T10:46:55;95038.66;;;26.01;54.28
27210;BME280;14721;42.668;23.386;2023-06-14T10:52:14;95040.31;;;26.66;53.72
27210;BME280;14721;42.668;23.386;2023-06-14T10:55:02;95030.94;;;26.36;53.14
27210;BME280;14721;42.668;23.386;2023-06-14T10:57:38;95018.84;;;25.86;54.16
27210;BME280;14721;42.668;23.386;2023-06-14T11:00:07;95029.59;;;25.88;55.62
27210;BME280;14721;42.668;23.386;2023-06-14T11:03:31;95009.50;;;26.20;55.89
27210;BME280;14721;42.668;23.386;2023-06-14T11:06:13;95011.56;;;26.31;54.18
27210;BME280;14721;42.668;23.386;2023-06-14T11:11:32;95014.94;;;26.33;53.31
27210;BME280;14721;42.668;23.386;2023-06-14T11:14:01;95012.09;;;26.02;53.08
27210;BME280;14721;42.668;23.386;2023-06-14T11:16:30;95016.69;;;26.14;53.24
27210;BME280;14721;42.668;23.386;2023-06-14T11:19:00;95013.66;;;25.45;55.16
27210;BME280;14721;42.668;23.386;2023-06-14T11:21:27;95005.84;;;25.29;55.75
27210;BME280;14721;42.668;23.386;2023-06-14T11:23:56;94997.25;;;25.39;56.80
27210;BME280;14721;42.668;23.386;2023-06-14T11:26:30;95000.16;;;25.63;55.06
27210;BME280;14721;42.668;23.386;2023-06-14T11:29:00;95000.13;;;25.76;54.28
27210;BME280;14721;42.668;23.386;2023-06-14T11:31:27;94977.34;;;26.02;54.96
27210;BME280;14721;42.668;23.386;2023-06-14T11:33:56;94989.44;;;26.32;54.86
27210;BME280;14721;42.668;23.386;2023-06-14T11:36:26;94998.16;;;26.67;54.79
27210;BME280;14721;42.668;23.386;2023-06-14T11:39:02;94997.84;;;26.81;53.31
27210;BME280;14721;42.668;23.386;2023-06-14T11:41:42;94993.09;;;26.57;53.73
27210;BME280;14721;42.668;23.386;2023-06-14T11:44:09;94999.53;;;26.32;52.59
27210;BME280;14721;42.668;23.386;2023-06-14T11:46:35;94979.22;;;26.08;53.98
27210;BME280;14721;42.668;23.386;2023-06-14T11:49:02;94988.28;;;26.53;53.93
27210;BME280;14721;42.668;23.386;2023-06-14T11:51:33;94973.50;;;26.16;53.66
27210;BME280;14721;42.668;23.386;2023-06-14T11:54:01;94981.56;;;25.85;54.66
27210;BME280;14721;42.668;23.386;2023-06-14T11:56:28;94969.38;;;25.81;55.09
27210;BME280;14721;42.668;23.386;2023-06-14T11:58:58;94970.41;;;25.87;54.69
27210;BME280;14721;42.668;23.386;2023-06-14T12:01:23;94966.81;;;25.93;55.03
27210;BME280;14721;42.668;23.386;2023-06-14T12:03:50;94959.25;;;26.01;55.40
27210;BME280;14721;42.668;23.386;2023-06-14T12:06:15;94955.16;;;26.17;54.86
27210;BME280;14721;42.668;23.386;2023-06-14T12:08:43;94945.63;;;26.32;54.02
27210;BME280;14721;42.668;23.386;2023-06-14T12:11:11;94944.03;;;26.12;55.04
27210;BME280;14721;42.668;23.386;2023-06-14T12:13:40;94943.69;;;25.82;54.97
27210;BME280;14721;42.668;23.386;2023-06-14T12:16:10;94947.16;;;25.51;55.63
27210;BME280;14721;42.668;23.386;2023-06-14T12:18:37;94923.38;;;25.39;55.41
27210;BME280;14721;42.668;23.386;2023-06-14T12:21:08;94951.97;;;25.56;56.00
27210;BME280;14721;42.668;23.386;2023-06-14T12:23:47;94950.09;;;25.24;55.70
27210;BME280;14721;42.668;23.386;2023-06-14T12:26:18;94943.81;;;24.97;56.51
27210;BME280;14721;42.668;23.386;2023-06-14T12:28:45;94941.47;;;24.88;57.15
27210;BME280;14721;42.668;23.386;2023-06-14T12:31:15;94941.72;;;24.99;56.80
27210;BME280;14721;42.668;23.386;2023-06-14T12:33:42;94934.75;;;25.16;56.32
27210;BME280;14721;42.668;23.386;2023-06-14T12:36:09;94935.19;;;25.26;55.54
27210;BME280;14721;42.668;23.386;2023-06-14T12:38:36;94925.31;;;25.32;55.49
27210;BME280;14721;42.668;23.386;2023-06-14T12:41:02;94920.19;;;25.61;55.32
27210;BME280;14721;42.668;23.386;2023-06-14T12:43:27;94908.31;;;25.80;54.74
27210;BME280;14721;42.668;23.386;2023-06-14T12:45:53;94920.91;;;26.01;54.51
27210;BME280;14721;42.668;23.386;2023-06-14T12:48:20;94921.66;;;26.21;52.96
27210;BME280;14721;42.668;23.386;2023-06-14T12:50:46;94909.72;;;25.96;53.33
27210;BME280;14721;42.668;23.386;2023-06-14T12:53:11;94905.94;;;25.97;53.57
27210;BME280;14721;42.668;23.386;2023-06-14T12:55:37;94913.91;;;26.12;53.49
27210;BME280;14721;42.668;23.386;2023-06-14T12:58:03;94907.81;;;26.10;52.87
27210;BME280;14721;42.668;23.386;2023-06-14T13:00:28;94909.66;;;26.16;51.43
27210;BME280;14721;42.668;23.386;2023-06-14T13:02:56;94902.78;;;26.00;51.98
27210;BME280;14721;42.668;23.386;2023-06-14T13:05:22;94907.69;;;26.36;51.22
27210;BME280;14721;42.668;23.386;2023-06-14T13:07:47;94912.63;;;26.52;50.08
27210;BME280;14721;42.668;23.386;2023-06-14T13:10:13;94917.44;;;26.63;52.56